sensor_id;sensor_type;location;lat;lon;timestamp;P1;durP1;ratioP1;P2;durP2;ratioP2
43803;SDS011;29430;52.924;-2.388;2022-09-09T00:06:36;10.90;;;7.55;;
43803;SDS011;29430;52.924;-2.388;2022-09-09T00:11:40;11.02;;;7.20;;
43803;SDS011;29430;52.924;-2.388;2022-09-09T00:16:32;11.18;;;7.57;;
43803;SDS011;29430;52.924;-2.388;2022-09-09T00:21:36;13.90;;;7.73;;
43803;SDS011;29430;52.924;-2.388;2022-09-09T00:26:38;12.73;;;7.90;;
43803;SDS011;29430;52.924;-2.388;2022-09-09T00:31:31;13.35;;;8.13;;
43803;SDS011;29430;52.924;-2.388;2022-09-09T00:36:24;13.75;;;8.48;;
43803;SDS011;29430;52.924;-2.388;2022-09-09T00:41:26;13.35;;;8.68;;
43803;SDS011;29430;52.924;-2.388;2022-09-09T00:56:50;17.35;;;11.02;;
43803;SDS011;29430;52.924;-2.388;2022-09-09T01:01:55;14.73;;;8.82;;
43803;SDS011;29430;52.924;-2.388;2022-09-09T01:06:47;15.85;;;10.63;;
43803;SDS011;29430;52.924;-2.388;2022-09-09T01:22:15;18.02;;;11.05;;
43803;SDS011;29430;52.924;-2.388;2022-09-09T01:27:17;15.02;;;9.68;;
43803;SDS011;29430;52.924;-2.388;2022-09-09T01:37:49;13.52;;;9.60;;
43803;SDS011;29430;52.924;-2.388;2022-09-09T01:42:41;17.30;;;11.77;;
43803;SDS011;29430;52.924;-2.388;2022-09-09T01:47:33;16.13;;;10.57;;
43803;SDS011;29430;52.924;-2.388;2022-09-09T01:52:25;11.48;;;8.98;;
43803;SDS011;29430;52.924;-2.388;2022-09-09T01:57:31;12.55;;;9.68;;
43803;SDS011;29430;52.924;-2.388;2022-09-09T02:07:47;16.70;;;10.93;;
43803;SDS011;29430;52.924;-2.388;2022-09-09T02:12:42;14.48;;;10.18;;
43803;SDS011;29430;52.924;-2.388;2022-09-09T02:17:37;12.38;;;8.70;;
43803;SDS011;29430;52.924;-2.388;2022-09-09T02:22:31;12.13;;;8.90;;
43803;SDS011;29430;52.924;-2.388;2022-09-09T02:27:26;11.43;;;7.50;;
43803;SDS011;29430;52.924;-2.388;2022-09-09T02:32:20;12.45;;;8.68;;
43803;SDS011;29430;52.924;-2.388;2022-09-09T02:37:17;14.98;;;9.60;;
43803;SDS011;29430;52.924;-2.388;2022-09-09T02:42:11;13.43;;;8.52;;
43803;SDS011;29430;52.924;-2.388;2022-09-09T02:47:24;13.88;;;9.80;;
43803;SDS011;29430;52.924;-2.388;2022-09-09T02:57:36;14.80;;;10.00;;
43803;SDS011;29430;52.924;-2.388;2022-09-09T03:02:29;15.52;;;10.80;;
43803;SDS011;29430;52.924;-2.388;2022-09-09T03:07:21;11.80;;;9.40;;
43803;SDS011;29430;52.924;-2.388;2022-09-09T03:12:13;18.98;;;11.88;;
43803;SDS011;29430;52.924;-2.388;2022-09-09T03:17:05;11.15;;;8.65;;
43803;SDS011;29430;52.924;-2.388;2022-09-09T03:21:57;13.70;;;8.75;;
43803;SDS011;29430;52.924;-2.388;2022-09-09T03:26:49;9.18;;;7.43;;
43803;SDS011;29430;52.924;-2.388;2022-09-09T03:31:41;10.57;;;7.20;;
43803;SDS011;29430;52.924;-2.388;2022-09-09T03:36:34;10.02;;;6.78;;
43803;SDS011;29430;52.924;-2.388;2022-09-09T03:41:26;12.20;;;7.55;;
43803;SDS011;29430;52.924;-2.388;2022-09-09T03:46:18;9.02;;;6.40;;
43803;SDS011;29430;52.924;-2.388;2022-09-09T03:51:10;9.55;;;7.20;;
43803;SDS011;29430;52.924;-2.388;2022-09-09T03:56:02;9.93;;;7.22;;
43803;SDS011;29430;52.924;-2.388;2022-09-09T04:00:56;12.45;;;8.00;;
43803;SDS011;29430;52.924;-2.388;2022-09-09T04:05:49;12.00;;;8.13;;
43803;SDS011;29430;52.924;-2.388;2022-09-09T04:10:40;14.55;;;9.18;;
43803;SDS011;29430;52.924;-2.388;2022-09-09T04:15:33;14.30;;;9.63;;
43803;SDS011;29430;52.924;-2.388;2022-09-09T04:20:26;16.60;;;9.95;;
43803;SDS011;29430;52.924;-2.388;2022-09-09T04:25:18;16.15;;;9.45;;
43803;SDS011;29430;52.924;-2.388;2022-09-09T04:30:10;18.20;;;9.68;;
43803;SDS011;29430;52.924;-2.388;2022-09-09T04:35:02;12.15;;;8.90;;
43803;SDS011;29430;52.924;-2.388;2022-09-09T04:39:54;15.98;;;10.02;;
43803;SDS011;29430;52.924;-2.388;2022-09-09T04:44:46;15.43;;;9.38;;
43803;SDS011;29430;52.924;-2.388;2022-09-09T04:49:37;16.05;;;11.90;;
43803;SDS011;29430;52.924;-2.388;2022-09-09T04:54:29;15.98;;;11.27;;
43803;SDS011;29430;52.924;-2.388;2022-09-09T04:59:21;16.20;;;10.93;;
43803;SDS011;29430;52.924;-2.388;2022-09-09T05:04:13;17.33;;;11.68;;
43803;SDS011;29430;52.924;-2.388;2022-09-09T05:09:06;13.05;;;10.55;;
43803;SDS011;29430;52.924;-2.388;2022-09-09T05:13:58;14.38;;;10.32;;
43803;SDS011;29430;52.924;-2.388;2022-09-09T05:18:49;20.98;;;14.18;;
43803;SDS011;29430;52.924;-2.388;2022-09-09T05:23:42;18.33;;;12.05;;
43803;SDS011;29430;52.924;-2.388;2022-09-09T05:28:34;17.58;;;11.85;;
43803;SDS011;29430;52.924;-2.388;2022-09-09T05:33:28;19.00;;;12.82;;
43803;SDS011;29430;52.924;-2.388;2022-09-09T05:38:19;20.67;;;13.73;;
43803;SDS011;29430;52.924;-2.388;2022-09-09T05:43:15;18.25;;;12.10;;
43803;SDS011;29430;52.924;-2.388;2022-09-09T05:48:07;15.48;;;12.10;;
43803;SDS011;29430;52.924;-2.388;2022-09-09T05:52:59;17.90;;;13.52;;
43803;SDS011;29430;52.924;-2.388;2022-09-09T05:57:50;18.92;;;13.20;;
43803;SDS011;29430;52.924;-2.388;2022-09-09T06:02:43;20.13;;;13.43;;
43803;SDS011;29430;52.924;-2.388;2022-09-09T06:07:35;21.73;;;13.98;;
43803;SDS011;29430;52.924;-2.388;2022-09-09T06:12:26;22.75;;;15.23;;
43803;SDS011;29430;52.924;-2.388;2022-09-09T06:17:18;21.52;;;16.42;;
43803;SDS011;29430;52.924;-2.388;2022-09-09T06:22:10;23.90;;;16.88;;
43803;SDS011;29430;52.924;-2.388;2022-09-09T06:27:03;27.35;;;17.27;;
43803;SDS011;29430;52.924;-2.388;2022-09-09T06:31:56;24.35;;;16.45;;
43803;SDS011;29430;52.924;-2.388;2022-09-09T06:36:49;20.67;;;15.75;;
43803;SDS011;29430;52.924;-2.388;2022-09-09T06:41:41;33.00;;;20.45;;
43803;SDS011;29430;52.924;-2.388;2022-09-09T06:46:34;27.67;;;19.20;;
43803;SDS011;29430;52.924;-2.388;2022-09-09T06:51:28;24.80;;;17.45;;
43803;SDS011;29430;52.924;-2.388;2022-09-09T06:56:25;21.75;;;15.00;;
43803;SDS011;29430;52.924;-2.388;2022-09-09T07:01:20;23.80;;;16.40;;
43803;SDS011;29430;52.924;-2.388;2022-09-09T07:06:15;25.23;;;16.40;;
43803;SDS011;29430;52.924;-2.388;2022-09-09T07:11:09;27.10;;;16.90;;
43803;SDS011;29430;52.924;-2.388;2022-09-09T07:16:06;22.98;;;15.68;;
43803;SDS011;29430;52.924;-2.388;2022-09-09T07:21:00;20.00;;;14.90;;
43803;SDS011;29430;52.924;-2.388;2022-09-09T07:25:53;20.13;;;13.43;;
43803;SDS011;29430;52.924;-2.388;2022-09-09T07:30:58;21.35;;;13.65;;
43803;SDS011;29430;52.924;-2.388;2022-09-09T07:36:15;20.98;;;13.88;;
43803;SDS011;29430;52.924;-2.388;2022-09-09T07:41:15;17.77;;;11.75;;
43803;SDS011;29430;52.924;-2.388;2022-09-09T07:46:12;25.55;;;13.70;;
43803;SDS011;29430;52.924;-2.388;2022-09-09T07:51:09;19.67;;;12.80;;
43803;SDS011;29430;52.924;-2.388;2022-09-09T07:56:07;18.13;;;13.37;;
43803;SDS011;29430;52.924;-2.388;2022-09-09T08:01:05;23.60;;;13.55;;
43803;SDS011;29430;52.924;-2.388;2022-09-09T08:06:02;21.23;;;15.57;;
43803;SDS011;29430;52.924;-2.388;2022-09-09T08:11:10;24.35;;;15.48;;
43803;SDS011;29430;52.924;-2.388;2022-09-09T08:21:20;18.60;;;13.40;;
43803;SDS011;29430;52.924;-2.388;2022-09-09T08:26:15;20.05;;;13.77;;
43803;SDS011;29430;52.924;-2.388;2022-09-09T08:31:16;23.70;;;16.45;;
43803;SDS011;29430;52.924;-2.388;2022-09-09T08:36:10;21.92;;;15.15;;
43803;SDS011;29430;52.924;-2.388;2022-09-09T08:41:12;24.05;;;15.90;;
43803;SDS011;29430;52.924;-2.388;2022-09-09T08:46:09;19.60;;;15.15;;
43803;SDS011;29430;52.924;-2.388;2022-09-09T08:51:06;17.45;;;12.43;;
43803;SDS011;29430;52.924;-2.388;2022-09-09T08:56:01;18.48;;;12.90;;
43803;SDS011;29430;52.924;-2.388;2022-09-09T09:11:03;15.45;;;12.38;;
43803;SDS011;29430;52.924;-2.388;2022-09-09T09:26:30;22.80;;;14.63;;
43803;SDS011;29430;52.924;-2.388;2022-09-09T09:31:24;17.38;;;15.05;;
43803;SDS011;29430;52.924;-2.388;2022-09-09T09:36:18;21.80;;;15.77;;
43803;SDS011;29430;52.924;-2.388;2022-09-09T09:41:10;17.13;;;13.18;;
43803;SDS011;29430;52.924;-2.388;2022-09-09T09:46:05;14.43;;;12.43;;
43803;SDS011;29430;52.924;-2.388;2022-09-09T09:51:13;19.27;;;13.95;;
43803;SDS011;29430;52.924;-2.388;2022-09-09T09:56:08;18.40;;;13.63;;
43803;SDS011;29430;52.924;-2.388;2022-09-09T10:01:02;17.08;;;12.75;;
43803;SDS011;29430;52.924;-2.388;2022-09-09T10:05:55;17.02;;;12.52;;
43803;SDS011;29430;52.924;-2.388;2022-09-09T10:27:13;14.63;;;10.45;;
43803;SDS011;29430;52.924;-2.388;2022-09-09T10:38:05;12.93;;;10.65;;
43803;SDS011;29430;52.924;-2.388;2022-09-09T10:42:47;10.80;;;8.40;;
43803;SDS011;29430;52.924;-2.388;2022-09-09T10:47:45;12.52;;;8.27;;
43803;SDS011;29430;52.924;-2.388;2022-09-09T10:58:00;8.68;;;6.53;;
43803;SDS011;29430;52.924;-2.388;2022-09-09T11:03:00;21.30;;;12.77;;
43803;SDS011;29430;52.924;-2.388;2022-09-09T11:07:57;14.75;;;8.63;;
43803;SDS011;29430;52.924;-2.388;2022-09-09T11:12:53;12.23;;;6.72;;
43803;SDS011;29430;52.924;-2.388;2022-09-09T11:17:52;12.00;;;6.78;;
43803;SDS011;29430;52.924;-2.388;2022-09-09T11:43:15;8.80;;;4.93;;
43803;SDS011;29430;52.924;-2.388;2022-09-09T11:53:53;14.20;;;7.25;;
43803;SDS011;29430;52.924;-2.388;2022-09-09T11:58:53;8.30;;;5.47;;
43803;SDS011;29430;52.924;-2.388;2022-09-09T12:09:20;11.18;;;9.85;;
43803;SDS011;29430;52.924;-2.388;2022-09-09T12:14:21;18.60;;;11.18;;
43803;SDS011;29430;52.924;-2.388;2022-09-09T12:19:26;9.60;;;7.15;;
43803;SDS011;29430;52.924;-2.388;2022-09-09T12:24:35;8.20;;;6.22;;
43803;SDS011;29430;52.924;-2.388;2022-09-09T12:34:55;11.05;;;10.02;;
43803;SDS011;29430;52.924;-2.388;2022-09-09T12:39:54;9.13;;;8.23;;
43803;SDS011;29430;52.924;-2.388;2022-09-09T12:44:53;9.93;;;9.02;;
43803;SDS011;29430;52.924;-2.388;2022-09-09T12:49:50;10.15;;;6.28;;
43803;SDS011;29430;52.924;-2.388;2022-09-09T12:54:44;9.32;;;6.45;;
43803;SDS011;29430;52.924;-2.388;2022-09-09T12:59:42;9.85;;;7.28;;
43803;SDS011;29430;52.924;-2.388;2022-09-09T13:04:39;9.77;;;6.47;;
43803;SDS011;29430;52.924;-2.388;2022-09-09T13:09:31;8.95;;;4.88;;
43803;SDS011;29430;52.924;-2.388;2022-09-09T13:19:23;5.95;;;2.53;;
43803;SDS011;29430;52.924;-2.388;2022-09-09T13:24:30;5.97;;;1.67;;
43803;SDS011;29430;52.924;-2.388;2022-09-09T13:29:24;5.85;;;1.52;;
43803;SDS011;29430;52.924;-2.388;2022-09-09T13:34:26;5.53;;;1.60;;
43803;SDS011;29430;52.924;-2.388;2022-09-09T13:39:22;4.25;;;1.67;;
43803;SDS011;29430;52.924;-2.388;2022-09-09T13:44:17;5.32;;;1.30;;
43803;SDS011;29430;52.924;-2.388;2022-09-09T13:54:06;3.08;;;0.80;;
43803;SDS011;29430;52.924;-2.388;2022-09-09T13:59:01;3.88;;;0.80;;
43803;SDS011;29430;52.924;-2.388;2022-09-09T14:03:54;3.05;;;0.70;;
43803;SDS011;29430;52.924;-2.388;2022-09-09T14:08:46;3.08;;;0.88;;
43803;SDS011;29430;52.924;-2.388;2022-09-09T14:13:37;3.80;;;1.35;;
43803;SDS011;29430;52.924;-2.388;2022-09-09T14:18:29;3.55;;;0.70;;
43803;SDS011;29430;52.924;-2.388;2022-09-09T14:23:21;5.63;;;0.95;;
43803;SDS011;29430;52.924;-2.388;2022-09-09T14:28:13;5.22;;;1.10;;
43803;SDS011;29430;52.924;-2.388;2022-09-09T14:33:06;4.40;;;1.10;;
43803;SDS011;29430;52.924;-2.388;2022-09-09T14:37:59;4.45;;;1.15;;
43803;SDS011;29430;52.924;-2.388;2022-09-09T14:42:52;4.72;;;1.10;;
43803;SDS011;29430;52.924;-2.388;2022-09-09T14:47:45;2.42;;;0.82;;
43803;SDS011;29430;52.924;-2.388;2022-09-09T14:52:36;4.35;;;0.80;;
43803;SDS011;29430;52.924;-2.388;2022-09-09T14:57:28;3.38;;;1.00;;
43803;SDS011;29430;52.924;-2.388;2022-09-09T15:02:19;4.47;;;0.73;;
43803;SDS011;29430;52.924;-2.388;2022-09-09T15:07:11;3.28;;;0.60;;
43803;SDS011;29430;52.924;-2.388;2022-09-09T15:12:03;2.67;;;0.75;;
43803;SDS011;29430;52.924;-2.388;2022-09-09T15:16:55;1.85;;;0.70;;
43803;SDS011;29430;52.924;-2.388;2022-09-09T15:21:47;2.63;;;0.80;;
43803;SDS011;29430;52.924;-2.388;2022-09-09T15:26:39;3.00;;;0.75;;
43803;SDS011;29430;52.924;-2.388;2022-09-09T15:31:31;3.03;;;1.00;;
43803;SDS011;29430;52.924;-2.388;2022-09-09T15:36:24;3.67;;;0.75;;
43803;SDS011;29430;52.924;-2.388;2022-09-09T15:41:18;4.20;;;0.80;;
43803;SDS011;29430;52.924;-2.388;2022-09-09T15:51:08;3.03;;;0.90;;
43803;SDS011;29430;52.924;-2.388;2022-09-09T15:56:21;2.03;;;0.60;;
43803;SDS011;29430;52.924;-2.388;2022-09-09T16:01:13;2.25;;;0.52;;
43803;SDS011;29430;52.924;-2.388;2022-09-09T16:06:05;3.35;;;0.68;;
43803;SDS011;29430;52.924;-2.388;2022-09-09T16:10:56;2.28;;;0.60;;
43803;SDS011;29430;52.924;-2.388;2022-09-09T16:16:06;3.92;;;0.60;;
43803;SDS011;29430;52.924;-2.388;2022-09-09T16:20:58;1.58;;;0.40;;
43803;SDS011;29430;52.924;-2.388;2022-09-09T16:25:54;1.45;;;0.20;;
43803;SDS011;29430;52.924;-2.388;2022-09-09T16:30:46;1.98;;;0.30;;
43803;SDS011;29430;52.924;-2.388;2022-09-09T16:35:38;0.95;;;0.17;;
43803;SDS011;29430;52.924;-2.388;2022-09-09T16:40:30;0.52;;;0.10;;
43803;SDS011;29430;52.924;-2.388;2022-09-09T16:45:21;1.15;;;0.10;;
43803;SDS011;29430;52.924;-2.388;2022-09-09T16:50:13;0.30;;;0.10;;
43803;SDS011;29430;52.924;-2.388;2022-09-09T16:55:05;1.13;;;0.10;;
43803;SDS011;29430;52.924;-2.388;2022-09-09T16:59:57;1.92;;;0.30;;
43803;SDS011;29430;52.924;-2.388;2022-09-09T17:04:50;0.35;;;0.00;;
43803;SDS011;29430;52.924;-2.388;2022-09-09T17:09:42;0.10;;;0.00;;
43803;SDS011;29430;52.924;-2.388;2022-09-09T17:14:33;0.68;;;0.00;;
43803;SDS011;29430;52.924;-2.388;2022-09-09T17:19:25;1.45;;;0.00;;
43803;SDS011;29430;52.924;-2.388;2022-09-09T17:24:17;0.15;;;0.00;;
43803;SDS011;29430;52.924;-2.388;2022-09-09T17:29:09;1.13;;;0.05;;
43803;SDS011;29430;52.924;-2.388;2022-09-09T17:34:02;0.63;;;0.00;;
43803;SDS011;29430;52.924;-2.388;2022-09-09T17:38:56;1.42;;;0.20;;
43803;SDS011;29430;52.924;-2.388;2022-09-09T17:43:49;1.67;;;0.20;;
43803;SDS011;29430;52.924;-2.388;2022-09-09T17:48:41;3.88;;;0.30;;
43803;SDS011;29430;52.924;-2.388;2022-09-09T17:53:37;0.50;;;0.10;;
43803;SDS011;29430;52.924;-2.388;2022-09-09T17:58:30;1.23;;;0.25;;
43803;SDS011;29430;52.924;-2.388;2022-09-09T18:03:22;2.78;;;0.40;;
43803;SDS011;29430;52.924;-2.388;2022-09-09T18:08:13;2.60;;;0.35;;
43803;SDS011;29430;52.924;-2.388;2022-09-09T18:13:05;3.95;;;0.55;;
43803;SDS011;29430;52.924;-2.388;2022-09-09T18:18:00;4.40;;;0.60;;
43803;SDS011;29430;52.924;-2.388;2022-09-09T18:22:56;2.72;;;0.45;;
43803;SDS011;29430;52.924;-2.388;2022-09-09T18:27:47;2.83;;;0.60;;
43803;SDS011;29430;52.924;-2.388;2022-09-09T18:32:39;2.47;;;0.60;;
43803;SDS011;29430;52.924;-2.388;2022-09-09T18:37:31;2.83;;;0.40;;
43803;SDS011;29430;52.924;-2.388;2022-09-09T18:42:25;3.35;;;0.60;;
43803;SDS011;29430;52.924;-2.388;2022-09-09T18:47:17;3.60;;;0.43;;
43803;SDS011;29430;52.924;-2.388;2022-09-09T18:52:09;2.28;;;0.40;;
43803;SDS011;29430;52.924;-2.388;2022-09-09T18:57:03;2.53;;;0.40;;
43803;SDS011;29430;52.924;-2.388;2022-09-09T19:01:54;2.33;;;0.50;;
43803;SDS011;29430;52.924;-2.388;2022-09-09T19:06:47;1.73;;;0.40;;
43803;SDS011;29430;52.924;-2.388;2022-09-09T19:11:39;2.58;;;0.50;;
43803;SDS011;29430;52.924;-2.388;2022-09-09T19:16:32;2.47;;;0.40;;
43803;SDS011;29430;52.924;-2.388;2022-09-09T19:21:27;2.63;;;0.30;;
43803;SDS011;29430;52.924;-2.388;2022-09-09T19:26:20;2.58;;;0.40;;
43803;SDS011;29430;52.924;-2.388;2022-09-09T19:31:13;2.97;;;0.40;;
43803;SDS011;29430;52.924;-2.388;2022-09-09T19:36:09;1.63;;;0.40;;
43803;SDS011;29430;52.924;-2.388;2022-09-09T19:41:05;1.73;;;0.30;;
43803;SDS011;29430;52.924;-2.388;2022-09-09T19:45:59;3.00;;;0.35;;
43803;SDS011;29430;52.924;-2.388;2022-09-09T19:50:52;3.50;;;0.98;;
43803;SDS011;29430;52.924;-2.388;2022-09-09T19:55:44;2.35;;;0.45;;
43803;SDS011;29430;52.924;-2.388;2022-09-09T20:00:41;4.20;;;0.55;;
43803;SDS011;29430;52.924;-2.388;2022-09-09T20:05:33;2.17;;;0.40;;
43803;SDS011;29430;52.924;-2.388;2022-09-09T20:10:24;2.33;;;0.50;;
43803;SDS011;29430;52.924;-2.388;2022-09-09T20:15:16;1.10;;;0.38;;
43803;SDS011;29430;52.924;-2.388;2022-09-09T20:20:08;2.33;;;0.35;;
43803;SDS011;29430;52.924;-2.388;2022-09-09T20:25:00;1.02;;;0.30;;
43803;SDS011;29430;52.924;-2.388;2022-09-09T20:29:51;2.70;;;0.30;;
43803;SDS011;29430;52.924;-2.388;2022-09-09T20:34:43;2.17;;;0.30;;
43803;SDS011;29430;52.924;-2.388;2022-09-09T20:39:38;1.60;;;0.30;;
43803;SDS011;29430;52.924;-2.388;2022-09-09T20:44:30;1.42;;;0.30;;
43803;SDS011;29430;52.924;-2.388;2022-09-09T20:49:22;2.30;;;0.60;;
43803;SDS011;29430;52.924;-2.388;2022-09-09T20:54:16;1.13;;;0.43;;
43803;SDS011;29430;52.924;-2.388;2022-09-09T20:59:11;2.10;;;1.30;;
43803;SDS011;29430;52.924;-2.388;2022-09-09T21:04:05;3.65;;;1.45;;
43803;SDS011;29430;52.924;-2.388;2022-09-09T21:08:58;2.35;;;1.10;;
43803;SDS011;29430;52.924;-2.388;2022-09-09T21:13:50;3.20;;;0.55;;
43803;SDS011;29430;52.924;-2.388;2022-09-09T21:18:41;2.30;;;0.60;;
43803;SDS011;29430;52.924;-2.388;2022-09-09T21:23:34;3.40;;;0.50;;
43803;SDS011;29430;52.924;-2.388;2022-09-09T21:28:26;2.78;;;0.47;;
43803;SDS011;29430;52.924;-2.388;2022-09-09T21:33:18;3.40;;;0.50;;
43803;SDS011;29430;52.924;-2.388;2022-09-09T21:38:12;2.85;;;0.70;;
43803;SDS011;29430;52.924;-2.388;2022-09-09T21:43:06;3.53;;;0.50;;
43803;SDS011;29430;52.924;-2.388;2022-09-09T21:48:02;2.03;;;0.40;;
43803;SDS011;29430;52.924;-2.388;2022-09-09T21:52:55;1.83;;;0.50;;
43803;SDS011;29430;52.924;-2.388;2022-09-09T21:57:47;4.05;;;0.70;;
43803;SDS011;29430;52.924;-2.388;2022-09-09T22:02:40;4.50;;;0.50;;
43803;SDS011;29430;52.924;-2.388;2022-09-09T22:07:32;1.88;;;0.47;;
43803;SDS011;29430;52.924;-2.388;2022-09-09T22:12:23;1.83;;;0.40;;
43803;SDS011;29430;52.924;-2.388;2022-09-09T22:17:15;3.45;;;0.60;;
43803;SDS011;29430;52.924;-2.388;2022-09-09T22:22:07;2.20;;;0.50;;
43803;SDS011;29430;52.924;-2.388;2022-09-09T22:26:58;3.33;;;0.60;;
43803;SDS011;29430;52.924;-2.388;2022-09-09T22:31:51;3.50;;;0.60;;
43803;SDS011;29430;52.924;-2.388;2022-09-09T22:36:46;2.08;;;0.50;;
43803;SDS011;29430;52.924;-2.388;2022-09-09T22:41:40;2.53;;;0.55;;
43803;SDS011;29430;52.924;-2.388;2022-09-09T22:46:32;1.98;;;0.60;;
43803;SDS011;29430;52.924;-2.388;2022-09-09T22:51:24;3.58;;;0.47;;
43803;SDS011;29430;52.924;-2.388;2022-09-09T22:56:17;3.08;;;0.50;;
43803;SDS011;29430;52.924;-2.388;2022-09-09T23:01:14;6.57;;;1.05;;
43803;SDS011;29430;52.924;-2.388;2022-09-09T23:06:08;3.20;;;0.45;;
43803;SDS011;29430;52.924;-2.388;2022-09-09T23:11:08;4.45;;;0.60;;
43803;SDS011;29430;52.924;-2.388;2022-09-09T23:16:08;3.13;;;0.60;;
43803;SDS011;29430;52.924;-2.388;2022-09-09T23:21:01;2.35;;;0.57;;
43803;SDS011;29430;52.924;-2.388;2022-09-09T23:25:53;4.47;;;0.82;;
43803;SDS011;29430;52.924;-2.388;2022-09-09T23:30:45;3.78;;;0.80;;
43803;SDS011;29430;52.924;-2.388;2022-09-09T23:35:37;2.80;;;0.73;;
43803;SDS011;29430;52.924;-2.388;2022-09-09T23:40:29;2.70;;;0.57;;
43803;SDS011;29430;52.924;-2.388;2022-09-09T23:45:21;2.58;;;0.60;;
43803;SDS011;29430;52.924;-2.388;2022-09-09T23:50:14;3.42;;;0.68;;
43803;SDS011;29430;52.924;-2.388;2022-09-09T23:55:05;3.17;;;0.70;;
43803;SDS011;29430;52.924;-2.388;2022-09-09T23:59:59;3.40;;;0.60;;
